Terminal Aerodrome Forecast
Issued by NWS

Home | Current Version | Previous Version | Text Only | Print | Product List | Glossary On
Versions: 1 2 3 4 5 6 7 8 9 10 11 12 13 14 15 16 17 18 19 20 21 22 23 24 25 26 27
000
FTUS43 KDMX 052137 AAB
TAFMCW
TAF AMD
KMCW 052137Z 0522/0618 15019G25KT 4SM BR OVC004
     FM060200 16012G22KT P6SM BKN035
     FM060500 22012KT 3SM -SN OVC008
     FM061000 26010KT P6SM BKN025
     FM061600 27018G26KT P6SM SCT035 BKN150=

USA.gov is the U.S. government's official web portal to all federal, state and local government web resources and services.